Terminal Aerodrome Forecast
Issued by NWS Wilmington, OH

Current Version | Previous Version | Text Only | Print | Product List | Glossary Off
Versions: 1 2 3 4 5 6 7 8 9 10 11 12 13 14 15 16 17 18 19 20 21 22 23 24 25

000
FTUS41 KILN 281100
TAFCVG
TAF
KCVG 281139Z 2812/0118 09007KT P6SM BKN080
     FM281800 09008KT P6SM SCT025 BKN060
     FM010300 10005KT 3SM -SN BKN025 OVC050
     FM010600 12004KT 1SM -SN OVC012
      TEMPO 0106/0109 1/2SM SN OVC008
     FM010900 15004KT 2SM -SNPL OVC005
     FM011200 18005KT 3SM -RAPL OVC008
     FM011500 19006KT 3SM -RA OVC015=

USA.gov is the U.S. government's official web portal to all federal, state and local government web resources and services.